createdAt,value
2023-03-19T00:00:03.926Z,975.48
2023-03-19T00:01:03.058Z,975.48
2023-03-19T00:02:18.084Z,975.45
2023-03-19T00:03:03.341Z,975.54
2023-03-19T00:04:02.983Z,975.48
2023-03-19T00:05:02.967Z,975.51
2023-03-19T00:06:03.027Z,975.37
2023-03-19T00:07:03.915Z,975.48
2023-03-19T00:08:03.879Z,975.51
2023-03-19T00:09:03.941Z,975.51
2023-03-19T00:10:03.870Z,975.37
2023-03-19T00:11:03.803Z,975.26
2023-03-19T00:12:03.736Z,975.37
2023-03-19T00:13:03.788Z,975.37
2023-03-19T00:14:03.876Z,975.37
2023-03-19T00:15:03.831Z,975.45
2023-03-19T00:16:03.808Z,975.45
2023-03-19T00:17:03.858Z,975.45
2023-03-19T00:18:03.823Z,975.45
2023-03-19T00:19:03.846Z,975.48
2023-03-19T00:20:03.873Z,975.57
2023-03-19T00:21:03.010Z,975.42
2023-03-19T00:22:02.945Z,975.37
2023-03-19T00:23:03.942Z,975.37
2023-03-19T00:24:03.812Z,975.54
2023-03-19T00:25:03.848Z,975.51
2023-03-19T00:26:03.886Z,975.45
2023-03-19T00:27:03.839Z,975.48
2023-03-19T00:28:03.844Z,975.65
2023-03-19T00:29:03.876Z,975.68
2023-03-19T00:30:03.865Z,975.71
2023-03-19T00:31:03.895Z,975.76
2023-03-19T00:32:03.862Z,975.68
2023-03-19T00:33:03.053Z,975.59
2023-03-19T00:34:03.922Z,975.76
2023-03-19T00:35:03.919Z,975.65
2023-03-19T00:36:03.062Z,975.62
2023-03-19T00:37:03.875Z,975.62
2023-03-19T00:38:03.828Z,975.76
2023-03-19T00:39:03.791Z,975.62
2023-03-19T00:40:03.823Z,975.73
2023-03-19T00:41:03.930Z,975.64
2023-03-19T00:42:03.911Z,975.62
2023-03-19T00:43:03.841Z,975.64
2023-03-19T00:44:03.897Z,975.61
2023-03-19T00:45:03.879Z,975.61
2023-03-19T00:46:04.061Z,975.58
2023-03-19T00:47:04.020Z,975.64
2023-03-19T00:48:03.939Z,975.44
2023-03-19T00:49:03.874Z,975.66
2023-03-19T00:50:03.885Z,975.52
2023-03-19T00:51:03.946Z,975.55
2023-03-19T00:52:03.932Z,975.49
2023-03-19T00:53:03.862Z,975.55
2023-03-19T00:54:03.794Z,975.57
2023-03-19T00:55:03.878Z,975.49
2023-03-19T00:56:03.977Z,975.57
2023-03-19T00:57:03.880Z,975.46
2023-03-19T00:58:02.980Z,975.49
2023-03-19T00:59:03.904Z,975.52
2023-03-19T01:00:03.825Z,975.57
2023-03-19T01:01:03.987Z,975.57
2023-03-19T01:02:03.947Z,975.63
2023-03-19T01:03:03.824Z,975.60
2023-03-19T01:04:03.034Z,975.54
2023-03-19T01:05:02.948Z,975.57
2023-03-19T01:06:03.912Z,975.52
2023-03-19T01:07:03.795Z,975.66
2023-03-19T01:08:03.863Z,975.57
2023-03-19T01:09:02.940Z,975.57
2023-03-19T01:10:03.354Z,975.63
2023-03-19T01:11:03.003Z,975.60
2023-03-19T01:12:03.071Z,975.71
2023-03-19T01:13:03.065Z,975.60
2023-03-19T01:14:03.134Z,975.57
2023-03-19T01:15:03.208Z,975.82
2023-03-19T01:16:03.220Z,975.77
2023-03-19T01:17:03.152Z,975.68
2023-03-19T01:18:03.183Z,975.74
2023-03-19T01:19:03.146Z,975.79
2023-03-19T01:20:03.150Z,975.65
2023-03-19T01:21:03.083Z,975.79
2023-03-19T01:22:03.162Z,975.68
2023-03-19T01:23:03.233Z,975.77
2023-03-19T01:24:03.228Z,975.77
2023-03-19T01:25:03.225Z,975.79
2023-03-19T01:26:03.311Z,975.68
2023-03-19T01:27:03.279Z,975.65
2023-03-19T01:28:03.275Z,975.77
2023-03-19T01:29:03.177Z,975.60
2023-03-19T01:30:03.214Z,975.65
2023-03-19T01:31:03.396Z,975.63
2023-03-19T01:32:03.187Z,975.80
2023-03-19T01:33:03.204Z,975.63
2023-03-19T01:34:03.259Z,975.69
2023-03-19T01:35:03.430Z,975.74
2023-03-19T01:36:03.633Z,975.63
2023-03-19T01:37:03.414Z,975.69
2023-03-19T01:38:03.444Z,975.63
2023-03-19T01:39:03.560Z,975.60
2023-03-19T01:40:03.346Z,975.63
2023-03-19T01:41:03.332Z,975.60
2023-03-19T01:42:03.411Z,975.78
2023-03-19T01:43:03.378Z,975.89
2023-03-19T01:44:03.350Z,975.78
2023-03-19T01:45:03.243Z,975.78
2023-03-19T01:46:03.418Z,975.75
2023-03-19T01:47:03.438Z,975.69
2023-03-19T01:48:03.434Z,975.72
2023-03-19T01:49:03.338Z,975.67
2023-03-19T01:50:03.331Z,975.64
2023-03-19T01:51:03.269Z,975.70
2023-03-19T01:52:03.256Z,975.58
2023-03-19T01:53:03.223Z,975.64
2023-03-19T01:54:03.314Z,975.73
2023-03-19T01:55:03.647Z,975.67
2023-03-19T01:56:03.389Z,975.79
2023-03-19T01:57:03.442Z,975.79
2023-03-19T01:58:03.405Z,975.70
2023-03-19T01:59:03.375Z,975.76
2023-03-19T02:00:03.369Z,975.82
2023-03-19T02:01:03.417Z,975.76
2023-03-19T02:02:03.398Z,975.79
2023-03-19T02:03:03.403Z,975.74
2023-03-19T02:04:03.566Z,975.80
2023-03-19T02:05:03.451Z,975.94
2023-03-19T02:06:03.434Z,975.80
2023-03-19T02:07:03.437Z,975.83
2023-03-19T02:08:03.311Z,975.71
2023-03-19T02:09:03.402Z,975.74
2023-03-19T02:10:03.364Z,975.69
2023-03-19T02:11:03.250Z,975.89
2023-03-19T02:12:03.292Z,975.81
2023-03-19T02:13:03.350Z,975.78
2023-03-19T02:14:03.289Z,976.04
2023-03-19T02:15:03.285Z,975.87
2023-03-19T02:16:03.330Z,975.87
2023-03-19T02:17:03.297Z,975.95
2023-03-19T02:18:03.202Z,975.84
2023-03-19T02:19:03.321Z,975.96
2023-03-19T02:20:03.312Z,975.79
2023-03-19T02:21:03.254Z,975.87
2023-03-19T02:22:03.210Z,975.87
2023-03-19T02:23:03.191Z,975.93
2023-03-19T02:24:03.277Z,975.90
2023-03-19T02:25:03.235Z,975.82
2023-03-19T02:26:03.155Z,975.77
2023-03-19T02:27:03.256Z,975.85
2023-03-19T02:28:03.145Z,975.88
2023-03-19T02:29:03.123Z,975.66
2023-03-19T02:30:03.517Z,975.83
2023-03-19T02:31:03.285Z,975.77
2023-03-19T02:32:03.170Z,975.72
2023-03-19T02:33:03.371Z,975.83
2023-03-19T02:34:03.220Z,975.83
2023-03-19T02:35:03.342Z,975.83
2023-03-19T02:36:03.424Z,975.63
2023-03-19T02:37:03.255Z,975.72
2023-03-19T02:38:03.317Z,975.63
2023-03-19T02:39:03.270Z,975.72
2023-03-19T02:40:03.346Z,975.83
2023-03-19T02:41:03.279Z,975.69
2023-03-19T02:42:03.267Z,975.72
2023-03-19T02:43:03.250Z,975.64
2023-03-19T02:44:03.248Z,975.66
2023-03-19T02:45:03.277Z,975.55
2023-03-19T02:46:03.380Z,975.55
2023-03-19T02:47:03.363Z,975.75
2023-03-19T02:48:03.312Z,975.52
2023-03-19T02:49:03.359Z,975.78
2023-03-19T02:50:03.400Z,975.61
2023-03-19T02:52:03.589Z,975.58
2023-03-19T02:53:03.636Z,975.64
2023-03-19T02:54:03.577Z,975.67
2023-03-19T02:55:03.632Z,975.67
2023-03-19T02:56:03.682Z,975.61
2023-03-19T02:57:03.794Z,975.67
2023-03-19T02:58:02.927Z,975.53
2023-03-19T02:59:03.153Z,975.61
2023-03-19T03:00:03.101Z,975.64
2023-03-19T03:01:03.274Z,975.70
2023-03-19T03:02:03.274Z,975.62
2023-03-19T03:03:03.173Z,975.56
2023-03-19T03:04:03.417Z,975.73
2023-03-19T03:05:03.538Z,975.70
2023-03-19T03:06:03.616Z,975.65
2023-03-19T03:07:03.623Z,975.59
2023-03-19T03:08:03.609Z,975.62
2023-03-19T03:09:03.648Z,975.62
2023-03-19T03:10:03.599Z,975.48
2023-03-19T03:11:03.546Z,975.51
2023-03-19T03:12:03.639Z,975.65
2023-03-19T03:13:03.717Z,975.51
2023-03-19T03:14:03.768Z,975.54
2023-03-19T03:15:03.784Z,975.62
2023-03-19T03:16:03.904Z,975.71
2023-03-19T03:17:03.823Z,975.57
2023-03-19T03:18:03.933Z,975.57
2023-03-19T03:19:03.822Z,975.63
2023-03-19T03:20:03.847Z,975.63
2023-03-19T03:21:03.920Z,975.54
2023-03-19T03:22:03.831Z,975.57
2023-03-19T03:23:03.852Z,975.60
2023-03-19T03:24:03.985Z,975.54
2023-03-19T03:25:02.975Z,975.46
2023-03-19T03:26:02.950Z,975.40
2023-03-19T03:27:03.061Z,975.43
2023-03-19T03:28:02.988Z,975.55
2023-03-19T03:29:02.970Z,975.49
2023-03-19T03:30:03.039Z,975.46
2023-03-19T03:31:02.993Z,975.38
2023-03-19T03:32:03.023Z,975.49
2023-03-19T03:33:03.274Z,975.49
2023-03-19T03:34:03.107Z,975.46
2023-03-19T03:35:03.191Z,975.41
2023-03-19T03:36:03.299Z,975.50
2023-03-19T03:37:03.291Z,975.41
2023-03-19T03:38:03.192Z,975.47
2023-03-19T03:39:03.232Z,975.50
2023-03-19T03:40:03.148Z,975.61
2023-03-19T03:41:03.169Z,975.59
2023-03-19T03:42:03.193Z,975.53
2023-03-19T03:43:03.302Z,975.59
2023-03-19T03:44:03.289Z,975.64
2023-03-19T03:45:03.250Z,975.53
2023-03-19T03:46:03.400Z,975.62
2023-03-19T03:47:03.389Z,975.70
2023-03-19T03:48:03.241Z,975.48
2023-03-19T03:49:03.366Z,975.59
2023-03-19T03:50:03.296Z,975.65
2023-03-19T03:51:03.366Z,975.73
2023-03-19T03:52:03.305Z,975.56
2023-03-19T03:53:03.195Z,975.62
2023-03-19T03:54:03.326Z,975.59
2023-03-19T03:55:03.474Z,975.68
2023-03-19T03:56:03.304Z,975.48
2023-03-19T03:57:04.072Z,975.54
2023-03-19T03:58:03.401Z,975.54
2023-03-19T03:59:03.389Z,975.68
2023-03-19T04:00:03.422Z,975.51
2023-03-19T04:01:03.304Z,975.54
2023-03-19T04:02:03.406Z,975.46
2023-03-19T04:03:03.473Z,975.63
2023-03-19T04:04:03.428Z,975.60
2023-03-19T04:05:03.448Z,975.49
2023-03-19T04:06:03.519Z,975.72
2023-03-19T04:07:03.557Z,975.66
2023-03-19T04:08:03.529Z,975.46
2023-03-19T04:09:03.617Z,975.58
2023-03-19T04:10:03.509Z,975.49
2023-03-19T04:11:03.512Z,975.64
2023-03-19T04:12:03.465Z,975.47
2023-03-19T04:13:03.646Z,975.72
2023-03-19T04:14:03.676Z,975.52
2023-03-19T04:15:03.656Z,975.58
2023-03-19T04:16:03.705Z,975.67
2023-03-19T04:17:03.770Z,975.53
2023-03-19T04:18:03.763Z,975.73
2023-03-19T04:19:03.859Z,975.78
2023-03-19T04:20:03.925Z,975.73
2023-03-19T04:21:03.785Z,975.76
2023-03-19T04:22:03.831Z,975.64
2023-03-19T04:23:03.758Z,975.62
2023-03-19T04:24:03.706Z,975.73
2023-03-19T04:25:03.765Z,975.73
2023-03-19T04:26:03.685Z,975.76
2023-03-19T04:27:03.758Z,975.73
2023-03-19T04:28:03.818Z,975.62
2023-03-19T04:29:03.798Z,975.59
2023-03-19T04:30:03.839Z,975.62
2023-03-19T04:31:03.982Z,975.65
2023-03-19T04:32:03.896Z,975.76
2023-03-19T04:33:04.085Z,975.65
2023-03-19T04:34:03.020Z,975.74
2023-03-19T04:35:03.009Z,975.62
2023-03-19T04:36:03.104Z,975.74
2023-03-19T04:37:03.047Z,975.76
2023-03-19T04:38:03.025Z,975.77
2023-03-19T04:39:03.975Z,975.77
2023-03-19T04:40:02.952Z,975.82
2023-03-19T04:41:02.915Z,975.77
2023-03-19T04:42:02.975Z,975.77
2023-03-19T04:43:03.852Z,975.77
2023-03-19T04:44:02.980Z,975.71
2023-03-19T04:45:03.101Z,975.77
2023-03-19T04:46:03.218Z,975.82
2023-03-19T04:47:02.989Z,975.71
2023-03-19T04:48:03.057Z,975.74
2023-03-19T04:49:03.045Z,975.83
2023-03-19T04:50:03.181Z,975.85
2023-03-19T04:51:03.208Z,975.85
2023-03-19T04:52:03.084Z,975.85
2023-03-19T04:53:03.150Z,975.66
2023-03-19T04:54:03.050Z,975.74
2023-03-19T04:55:02.975Z,975.72
2023-03-19T04:56:03.081Z,975.86
2023-03-19T04:57:03.072Z,975.92
2023-03-19T04:58:03.098Z,975.80
2023-03-19T04:59:03.106Z,975.80
2023-03-19T05:00:03.089Z,975.86
2023-03-19T05:01:03.095Z,975.67
2023-03-19T05:02:02.991Z,975.78
2023-03-19T05:03:03.023Z,975.67
2023-03-19T05:04:03.277Z,975.81
2023-03-19T05:05:03.152Z,975.70
2023-03-19T05:06:03.193Z,975.75
2023-03-19T05:07:03.257Z,975.98
2023-03-19T05:08:03.149Z,975.78
2023-03-19T05:09:03.210Z,975.89
2023-03-19T05:10:03.170Z,975.84
2023-03-19T05:11:03.111Z,975.95
2023-03-19T05:12:02.986Z,975.84
2023-03-19T05:13:03.124Z,975.84
2023-03-19T05:14:03.073Z,975.95
2023-03-19T05:15:03.130Z,975.76
2023-03-19T05:16:03.441Z,975.96
2023-03-19T05:17:03.383Z,975.96
2023-03-19T05:18:03.419Z,976.04
2023-03-19T05:19:03.341Z,975.96
2023-03-19T05:20:03.282Z,976.01
2023-03-19T05:21:03.415Z,975.87
2023-03-19T05:22:03.367Z,975.99
2023-03-19T05:23:03.345Z,975.84
2023-03-19T05:24:03.270Z,975.90
2023-03-19T05:25:03.579Z,975.87
2023-03-19T05:26:03.548Z,975.93
2023-03-19T05:27:03.502Z,975.99
2023-03-19T05:28:03.515Z,975.90
2023-03-19T05:29:03.544Z,976.01
2023-03-19T05:30:03.550Z,975.96
2023-03-19T05:31:03.630Z,975.93
2023-03-19T05:32:03.600Z,976.07
2023-03-19T05:33:03.625Z,975.93
2023-03-19T05:34:03.403Z,976.10
2023-03-19T05:35:03.599Z,975.99
2023-03-19T05:36:03.656Z,976.18
2023-03-19T05:37:03.495Z,976.18
2023-03-19T05:38:03.485Z,976.10
2023-03-19T05:39:03.580Z,976.10
2023-03-19T05:40:03.508Z,976.04
2023-03-19T05:41:03.515Z,976.07
2023-03-19T05:42:03.413Z,976.07
2023-03-19T05:43:03.623Z,976.10
2023-03-19T05:44:03.507Z,976.05
2023-03-19T05:45:03.553Z,976.16
2023-03-19T05:46:03.598Z,975.99
2023-03-19T05:47:03.688Z,975.99
2023-03-19T05:48:03.777Z,976.02
2023-03-19T05:49:03.853Z,976.07
2023-03-19T05:50:03.961Z,975.93
2023-03-19T05:51:03.889Z,976.10
2023-03-19T05:52:03.042Z,976.10
2023-03-19T05:53:03.031Z,976.05
2023-03-19T05:54:03.037Z,976.07
2023-03-19T05:55:03.194Z,976.22
2023-03-19T05:56:03.284Z,976.21
2023-03-19T05:57:05.180Z,976.21
2023-03-19T05:58:03.197Z,976.05
2023-03-19T05:59:03.256Z,976.16
2023-03-19T06:00:03.333Z,976.07
2023-03-19T06:01:03.285Z,975.99
2023-03-19T06:02:03.219Z,976.04
2023-03-19T06:03:03.312Z,976.01
2023-03-19T06:04:06.581Z,976.12
2023-03-19T06:05:03.089Z,976.26
2023-03-19T06:06:03.100Z,976.04
2023-03-19T06:07:03.186Z,976.12
2023-03-19T06:08:03.143Z,976.06
2023-03-19T06:09:03.194Z,976.01
2023-03-19T06:10:03.185Z,976.15
2023-03-19T06:11:03.390Z,976.09
2023-03-19T06:12:03.225Z,976.12
2023-03-19T06:13:03.480Z,976.34
2023-03-19T06:14:03.375Z,976.20
2023-03-19T06:15:03.383Z,976.20
2023-03-19T06:16:03.571Z,976.23
2023-03-19T06:17:03.388Z,976.11
2023-03-19T06:18:03.363Z,976.20
2023-03-19T06:19:03.551Z,976.31
2023-03-19T06:20:03.439Z,976.34
2023-03-19T06:21:03.637Z,976.28
2023-03-19T06:22:03.596Z,976.34
2023-03-19T06:23:03.753Z,976.28
2023-03-19T06:24:03.746Z,976.31
2023-03-19T06:25:03.760Z,976.22
2023-03-19T06:26:03.962Z,976.30
2023-03-19T06:27:03.890Z,976.39
2023-03-19T06:28:03.891Z,976.24
2023-03-19T06:29:03.225Z,976.33
2023-03-19T06:30:03.065Z,976.30
2023-03-19T06:31:03.194Z,976.33
2023-03-19T06:32:03.049Z,976.24
2023-03-19T06:33:03.068Z,976.35
2023-03-19T06:34:02.933Z,976.35
2023-03-19T06:35:03.996Z,976.24
2023-03-19T06:36:03.974Z,976.24
2023-03-19T06:37:03.905Z,976.29
2023-03-19T06:38:03.862Z,976.29
2023-03-19T06:39:03.881Z,976.29
2023-03-19T06:40:03.907Z,976.26
2023-03-19T06:41:03.790Z,976.17
2023-03-19T06:42:03.868Z,976.31
2023-03-19T06:43:03.691Z,976.20
2023-03-19T06:44:03.697Z,976.34
2023-03-19T06:45:03.761Z,976.25
2023-03-19T06:46:04.001Z,976.31
2023-03-19T06:47:03.931Z,976.31
2023-03-19T06:48:03.045Z,976.36
2023-03-19T06:49:03.044Z,976.30
2023-03-19T06:50:03.015Z,976.39
2023-03-19T06:51:03.065Z,976.33
2023-03-19T06:52:03.155Z,976.50
2023-03-19T06:53:03.250Z,976.35
2023-03-19T06:54:03.259Z,976.38
2023-03-19T06:55:03.233Z,976.32
2023-03-19T06:56:03.162Z,976.32
2023-03-19T06:57:03.116Z,976.41
2023-03-19T06:58:03.132Z,976.40
2023-03-19T06:59:03.206Z,976.46
2023-03-19T07:00:03.161Z,976.37
2023-03-19T07:01:03.230Z,976.48
2023-03-19T07:02:03.138Z,976.51
2023-03-19T07:03:03.182Z,976.48
2023-03-19T07:04:03.148Z,976.50
2023-03-19T07:05:03.096Z,976.39
2023-03-19T07:06:03.073Z,976.61
2023-03-19T07:07:03.026Z,976.58
2023-03-19T07:08:03.042Z,976.46
2023-03-19T07:09:03.023Z,976.52
2023-03-19T07:10:03.125Z,976.60
2023-03-19T07:11:03.187Z,976.60
2023-03-19T07:12:03.111Z,976.54
2023-03-19T07:13:03.144Z,976.62
2023-03-19T07:14:03.301Z,976.56
2023-03-19T07:15:03.252Z,976.75
2023-03-19T07:16:03.302Z,976.67
2023-03-19T07:17:03.273Z,976.77
2023-03-19T07:18:03.393Z,976.74
2023-03-19T07:19:03.337Z,976.74
2023-03-19T07:20:03.345Z,976.76
2023-03-19T07:21:03.336Z,976.79
2023-03-19T07:22:03.541Z,976.84
2023-03-19T07:23:03.629Z,976.70
2023-03-19T07:24:03.654Z,976.80
2023-03-19T07:25:03.737Z,976.80
2023-03-19T07:26:03.735Z,976.94
2023-03-19T07:27:03.844Z,976.85
2023-03-19T07:28:03.837Z,976.99
2023-03-19T07:29:03.904Z,976.96
2023-03-19T07:30:03.862Z,977.10
2023-03-19T07:31:03.928Z,977.09
2023-03-19T07:32:03.972Z,977.14
2023-03-19T07:33:03.978Z,977.11
2023-03-19T07:34:03.912Z,977.03
2023-03-19T07:35:03.964Z,977.02
2023-03-19T07:36:03.860Z,977.05
2023-03-19T07:37:03.784Z,977.07
2023-03-19T07:38:03.726Z,977.04
2023-03-19T07:39:03.770Z,976.98
2023-03-19T07:40:03.774Z,977.10
2023-03-19T07:41:03.785Z,977.15
2023-03-19T07:42:03.865Z,977.18
2023-03-19T07:43:03.870Z,977.26
2023-03-19T07:44:03.854Z,977.20
2023-03-19T07:45:03.824Z,977.26
2023-03-19T07:46:03.944Z,977.20
2023-03-19T07:47:03.842Z,977.09
2023-03-19T07:48:03.006Z,977.14
2023-03-19T07:49:03.005Z,977.26
2023-03-19T07:50:03.958Z,977.28
2023-03-19T07:51:02.954Z,977.26
2023-03-19T07:52:03.933Z,977.28
2023-03-19T07:53:03.061Z,977.08
2023-03-19T07:54:03.073Z,977.23
2023-03-19T07:55:03.027Z,977.40
2023-03-19T07:56:03.084Z,977.31
2023-03-19T07:57:03.225Z,977.28
2023-03-19T07:58:03.125Z,977.34
2023-03-19T07:59:03.084Z,977.23
2023-03-19T08:00:03.084Z,977.40
2023-03-19T08:01:03.092Z,977.39
2023-03-19T08:02:03.211Z,977.34
2023-03-19T08:03:03.093Z,977.34
2023-03-19T08:04:03.446Z,977.39
2023-03-19T08:05:03.276Z,977.42
2023-03-19T08:06:03.234Z,977.54
2023-03-19T08:07:03.818Z,977.39
2023-03-19T08:08:03.898Z,977.25
2023-03-19T08:09:03.898Z,977.28
2023-03-19T08:10:03.967Z,977.39
2023-03-19T08:11:03.827Z,977.42
2023-03-19T08:12:03.782Z,977.40
2023-03-19T08:13:03.690Z,977.34
2023-03-19T08:14:03.619Z,977.57
2023-03-19T08:15:03.756Z,977.28
2023-03-19T08:16:03.774Z,977.54
2023-03-19T08:17:04.115Z,977.57
2023-03-19T08:18:02.940Z,977.42
2023-03-19T08:19:03.933Z,977.51
2023-03-19T08:20:03.827Z,977.48
2023-03-19T08:21:03.832Z,977.45
2023-03-19T08:22:03.852Z,977.37
2023-03-19T08:23:03.813Z,977.51
2023-03-19T08:24:05.437Z,977.51
2023-03-19T08:25:03.883Z,977.42
2023-03-19T08:26:02.966Z,977.48
2023-03-19T08:27:03.020Z,977.51
2023-03-19T08:28:03.128Z,977.57
2023-03-19T08:29:03.124Z,977.57
2023-03-19T08:30:03.246Z,977.48
2023-03-19T08:31:03.362Z,977.48
2023-03-19T08:32:03.171Z,977.57
2023-03-19T08:33:03.260Z,977.56
2023-03-19T08:34:03.301Z,977.62
2023-03-19T08:35:03.341Z,977.59
2023-03-19T08:36:03.348Z,977.56
2023-03-19T08:37:03.345Z,977.73
2023-03-19T08:38:03.323Z,977.59
2023-03-19T08:39:03.328Z,977.59
2023-03-19T08:40:03.231Z,977.53
2023-03-19T08:41:03.366Z,977.59
2023-03-19T08:42:03.351Z,977.59
2023-03-19T08:43:03.167Z,977.70
2023-03-19T08:44:03.134Z,977.59
2023-03-19T08:45:03.349Z,977.56
2023-03-19T08:46:03.080Z,977.56
2023-03-19T08:47:03.181Z,977.75
2023-03-19T08:48:03.018Z,977.61
2023-03-19T08:49:03.128Z,977.56
2023-03-19T08:50:03.171Z,977.61
2023-03-19T08:51:03.095Z,977.66
2023-03-19T08:52:03.469Z,977.58
2023-03-19T08:53:03.431Z,977.61
2023-03-19T08:54:03.479Z,977.80
2023-03-19T08:55:03.419Z,977.61
2023-03-19T08:56:03.377Z,977.55
2023-03-19T08:57:03.595Z,977.69
2023-03-19T08:58:03.574Z,977.58
2023-03-19T08:59:03.622Z,977.61
2023-03-19T09:00:03.525Z,977.55
2023-03-19T09:01:03.580Z,977.61
2023-03-19T09:02:03.726Z,977.71
2023-03-19T09:03:03.670Z,977.69
2023-03-19T09:04:03.698Z,977.66
2023-03-19T09:05:03.590Z,977.74
2023-03-19T09:06:03.622Z,977.68
2023-03-19T09:07:03.554Z,977.61
2023-03-19T09:08:03.591Z,977.60
2023-03-19T09:09:03.651Z,977.68
2023-03-19T09:10:03.583Z,977.79
2023-03-19T09:11:03.675Z,977.60
2023-03-19T09:12:03.827Z,977.71
2023-03-19T09:13:03.778Z,977.65
2023-03-19T09:14:02.931Z,977.70
2023-03-19T09:15:03.029Z,977.65
2023-03-19T09:16:03.590Z,977.76
2023-03-19T09:17:03.459Z,977.60
2023-03-19T09:18:03.518Z,977.45
2023-03-19T09:19:03.533Z,977.59
2023-03-19T09:20:03.693Z,977.56
2023-03-19T09:21:03.688Z,977.62
2023-03-19T09:22:03.784Z,977.72
2023-03-19T09:23:03.732Z,977.59
2023-03-19T09:24:03.749Z,977.66
2023-03-19T09:25:03.853Z,977.53
2023-03-19T09:26:03.007Z,977.58
2023-03-19T09:27:03.035Z,977.61
2023-03-19T09:28:02.935Z,977.66
2023-03-19T09:29:03.967Z,977.55
2023-03-19T09:30:03.905Z,977.71
2023-03-19T09:31:03.925Z,977.57
2023-03-19T09:32:03.145Z,977.71
2023-03-19T09:33:03.012Z,977.57
2023-03-19T09:34:03.149Z,977.62
2023-03-19T09:35:03.121Z,977.67
2023-03-19T09:36:03.249Z,977.59
2023-03-19T09:37:03.105Z,977.69
2023-03-19T09:38:03.092Z,977.56
2023-03-19T09:39:03.062Z,977.56
2023-03-19T09:40:03.016Z,977.53
2023-03-19T09:41:02.994Z,977.61
2023-03-19T09:42:03.018Z,977.66
2023-03-19T09:43:03.833Z,977.71
2023-03-19T09:44:03.023Z,977.65
2023-03-19T09:45:02.938Z,977.68
2023-03-19T09:46:03.868Z,977.54
2023-03-19T09:47:03.047Z,977.46
2023-03-19T09:48:03.014Z,977.57
2023-03-19T09:49:03.068Z,977.51
2023-03-19T09:50:03.181Z,977.51
2023-03-19T09:51:03.080Z,977.51
2023-03-19T09:52:03.181Z,977.56
2023-03-19T09:53:03.130Z,977.45
2023-03-19T09:54:03.045Z,977.45
2023-03-19T09:55:02.966Z,977.59
2023-03-19T09:56:03.533Z,977.48
2023-03-19T09:57:03.462Z,977.42
2023-03-19T09:58:03.451Z,977.62
2023-03-19T09:59:03.524Z,977.45
2023-03-19T10:00:03.488Z,977.56
2023-03-19T10:01:03.456Z,977.45
2023-03-19T10:02:03.659Z,977.56
2023-03-19T10:03:04.303Z,977.59
2023-03-19T10:04:03.557Z,977.45
2023-03-19T10:05:03.477Z,977.42
2023-03-19T10:06:03.444Z,977.47
2023-03-19T10:07:03.518Z,977.53
2023-03-19T10:08:03.512Z,977.67
2023-03-19T10:09:03.698Z,977.53
2023-03-19T10:10:03.763Z,977.59
2023-03-19T10:11:03.743Z,977.39
2023-03-19T10:12:03.759Z,977.59
2023-03-19T10:13:03.755Z,977.44
2023-03-19T10:14:03.970Z,977.36
2023-03-19T10:15:03.958Z,977.39
2023-03-19T10:16:03.050Z,977.59
2023-03-19T10:17:03.110Z,977.47
2023-03-19T10:18:03.176Z,977.47
2023-03-19T10:19:03.140Z,977.50
2023-03-19T10:20:03.019Z,977.56
2023-03-19T10:21:03.144Z,977.44
2023-03-19T10:22:03.025Z,977.56
2023-03-19T10:23:03.070Z,977.50
2023-03-19T10:24:03.034Z,977.44
2023-03-19T10:25:03.005Z,977.53
2023-03-19T10:26:02.931Z,977.53
2023-03-19T10:27:03.013Z,977.67
2023-03-19T10:28:03.103Z,977.70
2023-03-19T10:29:03.220Z,977.70
2023-03-19T10:30:03.139Z,977.76
2023-03-19T10:31:03.202Z,977.56
2023-03-19T10:32:03.286Z,977.67
2023-03-19T10:33:03.421Z,977.62
2023-03-19T10:34:03.171Z,977.56
2023-03-19T10:35:03.097Z,977.67
2023-03-19T10:36:03.206Z,977.51
2023-03-19T10:37:03.072Z,977.56
2023-03-19T10:38:03.218Z,977.56
2023-03-19T10:39:03.123Z,977.70
2023-03-19T10:40:03.166Z,977.56
2023-03-19T10:41:03.249Z,977.70
2023-03-19T10:42:03.158Z,977.62
2023-03-19T10:43:03.152Z,977.59
2023-03-19T10:44:03.206Z,977.56
2023-03-19T10:45:03.111Z,977.62
2023-03-19T10:46:03.214Z,977.62
2023-03-19T10:47:03.032Z,977.59
2023-03-19T10:48:03.062Z,977.59
2023-03-19T10:49:02.916Z,977.59
2023-03-19T10:50:03.115Z,977.67
2023-03-19T10:51:03.123Z,977.56
2023-03-19T10:52:03.130Z,977.62
2023-03-19T10:53:03.151Z,977.70
2023-03-19T10:54:03.123Z,977.67
2023-03-19T10:55:03.140Z,977.54
2023-03-19T10:56:03.245Z,977.62
2023-03-19T10:57:03.281Z,977.67
2023-03-19T10:58:03.296Z,977.70
2023-03-19T10:59:03.316Z,977.60
2023-03-19T11:00:03.272Z,977.57
2023-03-19T11:01:03.373Z,977.65
2023-03-19T11:02:03.266Z,977.65
2023-03-19T11:03:03.346Z,977.76
2023-03-19T11:04:03.521Z,977.60
2023-03-19T11:05:03.372Z,977.60
2023-03-19T11:06:03.382Z,977.57
2023-03-19T11:07:03.433Z,977.73
2023-03-19T11:08:03.930Z,977.74
2023-03-19T11:09:03.913Z,977.74
2023-03-19T11:10:03.993Z,977.82
2023-03-19T11:11:03.931Z,977.91
2023-03-19T11:12:03.850Z,977.74
2023-03-19T11:13:03.858Z,977.68
2023-03-19T11:14:03.977Z,977.77
2023-03-19T11:15:02.925Z,977.83
2023-03-19T11:16:02.952Z,977.77
2023-03-19T11:17:05.395Z,977.77
2023-03-19T11:18:02.970Z,977.83
2023-03-19T11:19:03.043Z,977.72
2023-03-19T11:20:03.945Z,977.78
2023-03-19T11:21:02.982Z,977.78
2023-03-19T11:22:02.994Z,977.83
2023-03-19T11:23:03.131Z,977.75
2023-03-19T11:24:03.057Z,978.01
2023-03-19T11:25:03.100Z,978.01
2023-03-19T11:26:03.176Z,977.92
2023-03-19T11:27:03.137Z,977.92
2023-03-19T11:28:03.063Z,977.81
2023-03-19T11:29:03.138Z,977.87
2023-03-19T11:30:03.170Z,977.81
2023-03-19T11:31:03.161Z,977.81
2023-03-19T11:32:22.140Z,977.67
2023-03-19T11:33:03.258Z,977.87
2023-03-19T11:34:03.237Z,977.90
2023-03-19T11:35:03.174Z,977.96
2023-03-19T11:36:03.308Z,977.90
2023-03-19T11:37:03.196Z,977.87
2023-03-19T11:38:03.187Z,977.76
2023-03-19T11:39:03.313Z,977.90
2023-03-19T11:40:03.170Z,977.85
2023-03-19T11:41:03.132Z,977.96
2023-03-19T11:42:03.178Z,977.85
2023-03-19T11:43:03.112Z,977.88
2023-03-19T11:44:03.045Z,978.08
2023-03-19T11:45:02.949Z,977.99
2023-03-19T11:46:03.166Z,977.96
2023-03-19T11:47:03.068Z,977.96
2023-03-19T11:48:03.002Z,977.91
2023-03-19T11:49:03.036Z,977.76
2023-03-19T11:50:02.967Z,977.82
2023-03-19T11:51:02.931Z,977.85
2023-03-19T11:52:03.352Z,977.77
2023-03-19T11:53:03.524Z,977.82
2023-03-19T11:54:03.355Z,977.85
2023-03-19T11:55:03.337Z,977.88
2023-03-19T11:56:03.292Z,977.88
2023-03-19T11:57:03.353Z,977.79
2023-03-19T11:58:03.297Z,977.74
2023-03-19T11:59:03.263Z,977.76
2023-03-19T12:00:03.239Z,977.74
2023-03-19T12:01:03.256Z,977.76
2023-03-19T12:02:03.344Z,977.77
2023-03-19T12:03:03.214Z,977.77
2023-03-19T12:04:03.299Z,977.65
2023-03-19T12:05:03.233Z,977.71
2023-03-19T12:06:03.919Z,977.71
2023-03-19T12:07:03.283Z,977.60
2023-03-19T12:08:03.264Z,977.52
2023-03-19T12:09:03.367Z,977.65
2023-03-19T12:10:03.347Z,977.71
2023-03-19T12:11:03.326Z,977.55
2023-03-19T12:12:03.528Z,977.52
2023-03-19T12:13:03.463Z,977.52
2023-03-19T12:14:03.419Z,977.60
2023-03-19T12:15:03.501Z,977.54
2023-03-19T12:16:03.584Z,977.68
2023-03-19T12:17:03.454Z,977.52
2023-03-19T12:18:03.635Z,977.60
2023-03-19T12:19:03.534Z,977.52
2023-03-19T12:20:03.628Z,977.49
2023-03-19T12:21:03.679Z,977.46
2023-03-19T12:22:03.835Z,977.49
2023-03-19T12:23:03.729Z,977.57
2023-03-19T12:24:03.842Z,977.46
2023-03-19T12:25:03.821Z,977.60
2023-03-19T12:26:03.835Z,977.57
2023-03-19T12:27:03.729Z,977.54
2023-03-19T12:28:03.797Z,977.54
2023-03-19T12:29:04.955Z,977.52